CST,Max TemperatureF,Mean TemperatureF,Min TemperatureF,Max Dew PointF,MeanDew PointF,Min DewpointF,Max Humidity, Mean Humidity, Min Humidity, Max Sea Level PressureIn, Mean Sea Level PressureIn, Min Sea Level PressureIn, Max VisibilityMiles, Mean VisibilityMiles, Min VisibilityMiles, Max Wind SpeedMPH, Mean Wind SpeedMPH, Max Gust SpeedMPH,PrecipitationIn, CloudCover, Events, WindDirDegrees
2013-12-1,30,28,26,28,25,21,99,87,71,30.11,30.04,29.91,10,8,4,6,1,,0.00,8,,206
2013-12-2,30,25,20,27,24,20,96,85,77,29.91,29.80,29.73,10,8,4,10,4,18,0.00,8,Rain-Snow,146
2013-12-3,29,26,23,28,24,21,97,91,84,29.84,29.79,29.72,10,6,1,15,8,22,0.09,8,Snow,86
2013-12-4,32,28,23,32,27,21,100,95,90,29.84,29.58,29.29,10,6,0,15,7,20,0.35,8,Rain-Snow,94
2013-12-5,29,14,0,28,5,-5,93,81,74,30.08,29.76,29.37,10,6,1,18,14,28,0.06,8,Snow,255
2013-12-6,4,-3,-10,-2,-8,-15,82,79,72,30.39,30.24,30.09,10,10,5,12,8,18,0.00,4,Snow,263
2013-12-7,0,-10,-21,-8,-15,-27,83,78,70,30.49,30.45,30.38,10,10,10,12,5,,0.00,1,,246
2013-12-8,8,-8,-24,5,-8,-30,87,81,75,30.43,30.22,29.91,10,7,1,5,1,,0.00,6,Snow,117
2013-12-9,8,-2,-13,6,-5,-18,88,79,66,29.92,29.83,29.74,10,6,1,18,5,30,0.00,5,Snow,248
2013-12-10,4,-4,-12,-2,-9,-17,82,78,71,30.04,29.84,29.71,10,8,2,13,5,21,0.00,5,Snow,244
2013-12-11,-3,-8,-13,-12,-15,-19,81,76,65,30.30,30.22,30.05,10,10,7,13,6,17,0.00,1,Snow,257
2013-12-12,7,-2,-11,3,-5,-17,82,78,72,30.20,30.09,30.03,10,8,2,10,6,,0.00,7,Snow,254
2013-12-13,7,3,-1,3,-3,-6,83,75,63,30.27,30.18,30.06,10,9,3,9,5,,0.00,6,Snow,45
2013-12-14,13,7,1,9,4,-4,90,81,75,30.25,30.05,29.82,10,6,1,12,4,,0.00,8,Snow,106
2013-12-15,7,-8,-24,2,-11,-29,82,76,66,30.02,29.90,29.82,10,9,5,14,9,21,0.00,3,Snow,297
2013-12-16,7,-10,-26,5,-8,-32,92,79,68,30.01,29.90,29.78,10,8,0,13,3,17,0.00,6,Snow,204
2013-12-17,22,14,7,19,11,3,95,86,74,29.92,29.79,29.70,10,7,2,15,7,24,0.00,8,Snow,278
2013-12-18,21,8,-6,12,2,-10,92,79,54,29.92,29.75,29.60,10,10,7,12,4,16,0.00,3,Snow,185
2013-12-19,17,9,1,16,8,-3,93,84,74,30.03,29.93,29.68,10,8,2,13,4,18,0.01,7,Snow,21
2013-12-20,16,6,-4,13,8,-8,92,87,82,30.00,29.89,29.78,10,8,3,9,3,,0.00,6,Snow,43
2013-12-21,21,16,12,17,14,10,92,87,77,29.94,29.86,29.78,10,9,5,6,1,,0.00,8,Snow,35
2013-12-22,22,18,14,18,16,11,93,88,80,30.06,29.93,29.85,10,7,2,13,5,17,0.00,8,Snow,31
2013-12-23,14,6,-2,11,4,-6,91,82,69,30.31,30.21,30.06,10,9,4,9,3,,0.00,8,Snow,48
2013-12-24,13,0,-14,6,-2,-20,87,78,65,30.35,30.25,30.06,10,8,0,13,4,20,0.00,4,Fog-Snow,180
2013-12-25,14,10,5,10,6,1,88,83,74,30.04,29.96,29.92,10,5,2,13,8,16,0.00,8,Snow,239
2013-12-26,11,2,-5,9,1,-9,90,83,71,30.11,30.04,29.95,10,10,3,10,3,17,0.00,7,Snow,275
2013-12-27,30,20,11,27,20,10,98,91,80,30.10,29.93,29.77,10,9,5,14,6,23,0.00,7,,214
2013-12-28,31,24,18,31,27,15,100,96,90,29.90,29.79,29.69,10,6,1,15,5,24,0.00,8,Snow,174
2013-12-29,17,0,-19,14,-5,-25,87,78,66,30.10,30.01,29.82,10,7,2,15,10,24,0.00,6,Snow,336
2013-12-30,-4,-17,-30,-14,-23,-36,81,70,53,30.14,30.08,30.02,10,10,7,7,1,,0.00,4,,258
2013-12-31,-6,-15,-24,-15,-22,-29,80,74,62,30.28,30.12,30.01,10,10,7,12,3,17,0.00,2,Snow,285